createdAt,value
2023-10-20T00:01:00.681Z,87.78
2023-10-20T00:03:32.967Z,87.89
2023-10-20T00:06:05.843Z,88.19
2023-10-20T00:08:37.275Z,87.56
2023-10-20T00:11:10.104Z,87.91
2023-10-20T00:13:41.809Z,87.56
2023-10-20T00:16:12.888Z,87.82
2023-10-20T00:18:44.589Z,87.41
2023-10-20T00:21:16.674Z,88.36
2023-10-20T00:23:48.294Z,88.60
2023-10-20T00:26:20.107Z,87.65
2023-10-20T00:28:54.336Z,87.70
2023-10-20T00:31:26.531Z,87.81
2023-10-20T00:33:58.552Z,87.49
2023-10-20T00:36:30.709Z,87.78
2023-10-20T00:39:02.222Z,87.82
2023-10-20T00:41:32.909Z,88.05
2023-10-20T00:44:04.618Z,87.98
2023-10-20T00:46:37.049Z,88.89
2023-10-20T00:49:09.064Z,88.67
2023-10-20T00:51:41.603Z,89.59
2023-10-20T00:54:16.301Z,88.69
2023-10-20T00:56:48.472Z,88.50
2023-10-20T00:59:19.942Z,88.30
2023-10-20T01:01:51.037Z,88.57
2023-10-20T01:04:22.453Z,89.22
2023-10-20T01:06:54.859Z,88.84
2023-10-20T01:09:28.403Z,88.86
2023-10-20T01:11:59.752Z,89.54
2023-10-20T01:14:31.654Z,89.01
2023-10-20T01:17:03.415Z,89.04
2023-10-20T01:19:35.377Z,88.96
2023-10-20T01:22:07.340Z,89.14
2023-10-20T01:24:39.281Z,89.12
2023-10-20T01:27:09.968Z,88.81
2023-10-20T01:29:41.009Z,88.77
2023-10-20T01:32:11.555Z,88.79
2023-10-20T01:34:42.707Z,89.41
2023-10-20T01:37:17.470Z,89.34
2023-10-20T01:39:48.611Z,89.43
2023-10-20T01:42:19.228Z,89.30
2023-10-20T01:44:50.151Z,89.12
2023-10-20T01:47:21.258Z,89.56
2023-10-20T01:49:52.544Z,89.26
2023-10-20T01:52:22.776Z,89.77
2023-10-20T01:54:53.936Z,89.49
2023-10-20T01:57:24.441Z,89.37
2023-10-20T01:59:54.788Z,89.84
2023-10-20T02:02:25.124Z,89.75
2023-10-20T02:04:55.511Z,89.42
2023-10-20T02:07:25.587Z,90.59
2023-10-20T02:09:57.325Z,90.44
2023-10-20T02:12:27.522Z,89.50
2023-10-20T02:14:57.524Z,90.02
2023-10-20T02:17:27.815Z,89.74
2023-10-20T02:19:58.357Z,89.94
2023-10-20T02:22:28.450Z,89.91
2023-10-20T02:24:58.931Z,90.35
2023-10-20T02:27:30.835Z,90.31
2023-10-20T02:30:01.042Z,90.05
2023-10-20T02:32:31.409Z,90.15
2023-10-20T02:35:02.787Z,90.40
2023-10-20T02:37:33.329Z,90.92
2023-10-20T02:40:07.252Z,90.60
2023-10-20T02:42:37.452Z,90.68
2023-10-20T02:45:13.212Z,90.69
2023-10-20T02:47:43.472Z,90.80
2023-10-20T02:50:14.593Z,90.85
2023-10-20T02:52:45.439Z,90.95
2023-10-20T02:55:15.749Z,90.58
2023-10-20T02:57:45.960Z,91.06
2023-10-20T03:00:17.439Z,91.30
2023-10-20T03:02:50.908Z,91.25
2023-10-20T03:05:22.565Z,90.98
2023-10-20T03:07:52.729Z,90.82
2023-10-20T03:10:22.830Z,90.98
2023-10-20T03:12:53.155Z,91.35
2023-10-20T03:15:23.325Z,91.34
2023-10-20T03:17:54.339Z,90.97
2023-10-20T03:20:30.632Z,91.08
2023-10-20T03:23:00.886Z,91.81
2023-10-20T03:25:35.835Z,91.81
2023-10-20T03:28:07.622Z,91.60
2023-10-20T03:30:41.913Z,91.85
2023-10-20T03:33:13.452Z,91.83
2023-10-20T03:35:43.941Z,92.60
2023-10-20T03:38:14.176Z,93.38
2023-10-20T03:40:44.660Z,92.90
2023-10-20T03:43:14.830Z,92.85
2023-10-20T03:45:51.774Z,93.50
2023-10-20T03:48:22.357Z,93.30
2023-10-20T03:50:54.779Z,93.52
2023-10-20T03:53:25.741Z,93.59
2023-10-20T03:56:03.779Z,93.74
2023-10-20T03:58:35.046Z,93.78
2023-10-20T04:01:08.980Z,92.88
2023-10-20T04:03:39.236Z,93.91
2023-10-20T04:06:13.348Z,94.02
2023-10-20T04:08:44.788Z,93.87
2023-10-20T04:11:15.178Z,93.47
2023-10-20T04:13:45.332Z,94.08
2023-10-20T04:16:15.886Z,93.74
2023-10-20T04:18:46.870Z,93.40
2023-10-20T04:21:17.156Z,94.05
2023-10-20T04:23:47.427Z,93.74
2023-10-20T04:26:23.574Z,93.47
2023-10-20T04:29:10.420Z,93.74
2023-10-20T04:31:59.360Z,94.20
2023-10-20T04:34:48.215Z,94.54
2023-10-20T04:37:36.633Z,94.43
2023-10-20T04:40:25.566Z,94.56
2023-10-20T04:43:14.108Z,94.12
2023-10-20T04:46:02.524Z,94.11
2023-10-20T04:48:50.963Z,94.20
2023-10-20T04:51:39.243Z,94.20
2023-10-20T04:54:25.071Z,94.15
2023-10-20T04:57:13.258Z,93.89
2023-10-20T04:59:46.210Z,94.05
2023-10-20T05:02:34.773Z,94.48
2023-10-20T05:05:13.482Z,94.43
2023-10-20T05:07:52.481Z,94.91
2023-10-20T05:10:23.441Z,95.30
2023-10-20T05:12:54.060Z,95.66
2023-10-20T05:15:24.359Z,95.59
2023-10-20T05:17:55.016Z,95.58
2023-10-20T05:20:26.439Z,95.42
2023-10-20T05:22:58.707Z,95.35
2023-10-20T05:25:28.997Z,95.74
2023-10-20T05:27:59.334Z,95.82
2023-10-20T05:30:29.999Z,96.14
2023-10-20T05:33:00.429Z,96.69
2023-10-20T05:35:31.662Z,96.78
2023-10-20T05:38:01.891Z,96.87
2023-10-20T05:40:32.100Z,97.00
2023-10-20T05:43:04.158Z,96.86
2023-10-20T05:45:43.901Z,97.26
2023-10-20T05:48:15.122Z,96.60
2023-10-20T05:50:45.416Z,96.88
2023-10-20T05:53:16.724Z,96.99
2023-10-20T05:55:47.369Z,96.96
2023-10-20T05:58:17.544Z,96.51
2023-10-20T06:01:01.610Z,97.21
2023-10-20T06:03:33.253Z,97.11
2023-10-20T06:06:05.841Z,97.70
2023-10-20T06:08:36.130Z,97.36
2023-10-20T06:11:07.635Z,97.02
2023-10-20T06:13:37.924Z,96.67
2023-10-20T06:16:13.188Z,96.88
2023-10-20T06:18:44.911Z,97.32
2023-10-20T06:21:17.788Z,97.34
2023-10-20T06:23:48.943Z,96.96
2023-10-20T06:26:19.497Z,96.98
2023-10-20T06:28:49.645Z,96.74
2023-10-20T06:31:31.730Z,97.00
2023-10-20T06:34:20.021Z,96.89
2023-10-20T06:36:50.640Z,96.52
2023-10-20T06:39:21.037Z,96.98
2023-10-20T06:41:51.463Z,96.73
2023-10-20T06:44:24.299Z,96.34
2023-10-20T06:46:55.148Z,96.32
2023-10-20T06:49:25.618Z,96.12
2023-10-20T06:51:55.865Z,96.40
2023-10-20T06:54:26.056Z,96.55
2023-10-20T06:56:56.723Z,96.93
2023-10-20T06:59:26.955Z,97.50
2023-10-20T07:02:02.668Z,96.73
2023-10-20T07:04:34.386Z,97.37
2023-10-20T07:07:07.716Z,97.11
2023-10-20T07:09:38.183Z,97.14
2023-10-20T07:12:12.485Z,97.40
2023-10-20T07:14:46.032Z,97.42
2023-10-20T07:17:16.304Z,97.91
2023-10-20T07:19:46.456Z,97.59
2023-10-20T07:22:16.781Z,96.95
2023-10-20T07:24:47.134Z,97.87
2023-10-20T07:27:19.033Z,97.65
2023-10-20T07:29:49.573Z,96.94
2023-10-20T07:32:20.902Z,96.45
2023-10-20T07:37:41.927Z,97.73
2023-10-20T07:40:13.063Z,97.59
2023-10-20T07:42:43.796Z,97.66
2023-10-20T07:45:15.199Z,97.64
2023-10-20T07:47:45.391Z,97.62
2023-10-20T07:50:15.658Z,97.27
2023-10-20T07:52:45.910Z,97.54
2023-10-20T07:55:16.976Z,97.54
2023-10-20T07:57:47.524Z,97.66
2023-10-20T08:00:18.235Z,97.68
2023-10-20T08:02:52.381Z,97.52
2023-10-20T08:05:29.488Z,98.10
2023-10-20T08:08:00.918Z,98.13
2023-10-20T08:10:31.245Z,98.08
2023-10-20T08:13:01.928Z,98.36
2023-10-20T08:15:32.420Z,98.09
2023-10-20T08:18:02.713Z,98.31
2023-10-20T08:20:33.037Z,97.66
2023-10-20T08:23:03.616Z,97.70
2023-10-20T08:25:33.578Z,98.17
2023-10-20T08:28:03.630Z,98.01
2023-10-20T08:30:33.881Z,98.10
2023-10-20T08:33:05.828Z,98.40
2023-10-20T08:35:36.516Z,97.81
2023-10-20T08:38:07.074Z,98.25
2023-10-20T08:40:56.179Z,98.63
2023-10-20T08:43:28.316Z,98.11
2023-10-20T08:45:58.577Z,98.30
2023-10-20T08:48:29.599Z,98.55
2023-10-20T08:51:01.655Z,98.79
2023-10-20T08:53:38.863Z,98.42
2023-10-20T08:56:11.066Z,99.00
2023-10-20T08:58:42.500Z,98.36
2023-10-20T09:01:12.688Z,98.92
2023-10-20T09:03:45.699Z,98.69
2023-10-20T09:06:17.200Z,98.31
2023-10-20T09:08:53.454Z,98.57
2023-10-20T09:11:33.190Z,98.51
2023-10-20T09:14:05.038Z,97.80
2023-10-20T09:16:37.006Z,97.83
2023-10-20T09:19:08.124Z,97.55
2023-10-20T09:21:41.982Z,97.84
2023-10-20T09:24:14.315Z,97.21
2023-10-20T09:26:45.994Z,96.96
2023-10-20T09:29:18.092Z,97.50
2023-10-20T09:31:48.487Z,97.22
2023-10-20T09:34:18.775Z,97.81
2023-10-20T09:36:51.813Z,97.27
2023-10-20T09:39:33.719Z,96.76
2023-10-20T09:42:05.261Z,96.43
2023-10-20T09:44:47.852Z,96.14
2023-10-20T09:47:25.962Z,95.77
2023-10-20T09:49:57.292Z,96.06
2023-10-20T09:52:29.304Z,96.60
2023-10-20T09:55:01.745Z,95.96
2023-10-20T09:57:32.274Z,95.51
2023-10-20T10:00:07.616Z,94.26
2023-10-20T10:02:38.030Z,94.24
2023-10-20T10:05:12.464Z,93.88
2023-10-20T10:07:42.634Z,94.18
2023-10-20T10:10:23.056Z,94.77
2023-10-20T10:13:02.332Z,93.64
2023-10-20T10:15:42.713Z,93.38
2023-10-20T10:18:15.044Z,93.58
2023-10-20T10:20:51.078Z,92.53
2023-10-20T10:23:31.963Z,92.61
2023-10-20T10:26:02.241Z,92.20
2023-10-20T10:28:33.130Z,92.17
2023-10-20T10:31:03.969Z,91.77
2023-10-20T10:33:34.828Z,91.71
2023-10-20T10:36:12.514Z,92.13
2023-10-20T10:38:45.628Z,90.91
2023-10-20T10:41:16.076Z,91.94
2023-10-20T10:43:46.261Z,90.86
2023-10-20T10:46:16.587Z,90.60
2023-10-20T10:48:47.724Z,89.92
2023-10-20T10:51:17.968Z,90.61
2023-10-20T10:53:48.713Z,89.13
2023-10-20T10:56:20.142Z,89.78
2023-10-20T10:58:51.068Z,88.75
2023-10-20T11:01:22.711Z,89.25
2023-10-20T11:03:53.656Z,88.66
2023-10-20T11:06:23.920Z,89.74
2023-10-20T11:08:54.676Z,88.42
2023-10-20T11:11:29.842Z,89.34
2023-10-20T11:14:00.721Z,87.81
2023-10-20T11:16:30.888Z,87.84
2023-10-20T11:19:03.967Z,87.79
2023-10-20T11:21:56.535Z,87.82
2023-10-20T11:24:37.759Z,87.21
2023-10-20T11:27:11.080Z,87.04
2023-10-20T11:29:58.590Z,88.24
2023-10-20T11:32:29.596Z,86.67
2023-10-20T11:34:59.953Z,86.79
2023-10-20T11:37:30.144Z,87.42
2023-10-20T11:40:00.378Z,86.44
2023-10-20T11:42:31.281Z,86.90
2023-10-20T11:45:03.341Z,87.40
2023-10-20T11:47:33.711Z,86.59
2023-10-20T11:50:04.642Z,86.54
2023-10-20T11:52:34.903Z,87.34
2023-10-20T11:55:06.084Z,85.94
2023-10-20T11:57:36.382Z,86.38
2023-10-20T12:00:11.406Z,86.74
2023-10-20T12:02:42.462Z,84.89
2023-10-20T12:05:12.929Z,85.45
2023-10-20T12:07:43.137Z,86.01
2023-10-20T12:10:14.877Z,85.69
2023-10-20T12:12:45.147Z,84.30
2023-10-20T12:15:15.142Z,83.23
2023-10-20T12:17:45.380Z,85.60
2023-10-20T12:20:15.654Z,83.89
2023-10-20T12:22:46.004Z,83.43
2023-10-20T12:25:17.155Z,83.92
2023-10-20T12:27:47.428Z,84.58
2023-10-20T12:30:18.109Z,83.58
2023-10-20T12:32:50.355Z,84.36
2023-10-20T12:35:22.141Z,84.56
2023-10-20T12:37:53.560Z,82.37
2023-10-20T12:40:23.191Z,81.97
2023-10-20T12:42:53.931Z,81.40
2023-10-20T12:45:24.120Z,81.67
2023-10-20T12:47:57.863Z,80.79
2023-10-20T12:50:34.778Z,81.59
2023-10-20T12:53:05.870Z,79.94
2023-10-20T12:55:37.132Z,79.89
2023-10-20T12:58:07.529Z,79.96
2023-10-20T13:00:37.779Z,78.55
2023-10-20T13:03:09.716Z,78.74
2023-10-20T13:05:40.349Z,78.45
2023-10-20T13:08:10.594Z,78.92
2023-10-20T13:10:41.691Z,79.26
2023-10-20T13:13:12.865Z,79.14
2023-10-20T13:15:43.822Z,76.94
2023-10-20T13:18:18.004Z,76.74
2023-10-20T13:20:48.257Z,75.94
2023-10-20T13:23:18.795Z,74.29
2023-10-20T13:25:49.019Z,76.29
2023-10-20T13:28:19.240Z,77.92
2023-10-20T13:31:07.507Z,77.20
2023-10-20T13:33:38.975Z,76.08
2023-10-20T13:36:13.426Z,76.93
2023-10-20T13:38:43.752Z,73.39
2023-10-20T13:41:17.367Z,75.07
2023-10-20T13:43:47.592Z,74.88
2023-10-20T13:46:18.734Z,75.38
2023-10-20T13:48:49.433Z,75.19
2023-10-20T13:51:19.657Z,76.12
2023-10-20T13:53:50.023Z,75.36
2023-10-20T13:56:20.326Z,74.81
2023-10-20T13:58:50.795Z,76.05
2023-10-20T14:01:20.997Z,76.96
2023-10-20T14:03:52.496Z,76.88
2023-10-20T14:06:22.753Z,76.84
2023-10-20T14:08:52.861Z,75.45
2023-10-20T14:11:23.342Z,76.49
2023-10-20T14:13:53.684Z,76.41
2023-10-20T14:16:23.957Z,75.10
2023-10-20T14:18:54.155Z,74.04
2023-10-20T14:21:25.588Z,74.13
2023-10-20T14:23:55.957Z,72.78
2023-10-20T14:26:26.078Z,72.59
2023-10-20T14:28:56.368Z,74.14
2023-10-20T14:31:26.644Z,75.38
2023-10-20T14:33:57.131Z,75.71
2023-10-20T14:36:27.329Z,75.71
2023-10-20T14:38:57.560Z,76.61
2023-10-20T14:41:27.793Z,76.21
2023-10-20T14:43:58.042Z,75.70
2023-10-20T14:46:28.717Z,76.38
2023-10-20T14:48:59.054Z,75.56
2023-10-20T14:51:29.269Z,75.31
2023-10-20T14:54:00.465Z,75.01
2023-10-20T14:56:30.147Z,76.46
2023-10-20T14:59:01.246Z,73.95
2023-10-20T15:01:32.240Z,76.32
2023-10-20T15:04:13.998Z,74.93
2023-10-20T15:06:52.244Z,74.82
2023-10-20T15:09:23.249Z,75.11
2023-10-20T15:11:54.445Z,75.85
2023-10-20T15:14:24.329Z,76.87
2023-10-20T15:16:56.411Z,76.35
2023-10-20T15:19:27.995Z,75.43
2023-10-20T15:21:58.223Z,78.02
2023-10-20T15:24:28.447Z,75.34
2023-10-20T15:26:59.196Z,76.30
2023-10-20T15:29:29.504Z,75.95
2023-10-20T15:31:59.771Z,75.14
2023-10-20T15:34:30.746Z,76.72
2023-10-20T15:37:01.861Z,75.50
2023-10-20T15:39:47.372Z,75.93
2023-10-20T15:42:23.593Z,74.62
2023-10-20T15:44:53.912Z,76.10
2023-10-20T15:47:24.313Z,74.71
2023-10-20T15:49:54.792Z,75.25
2023-10-20T15:52:25.038Z,74.01
2023-10-20T15:54:56.211Z,75.72
2023-10-20T15:57:26.191Z,74.49
2023-10-20T15:59:58.678Z,75.78
2023-10-20T16:02:29.258Z,74.43
2023-10-20T16:05:00.363Z,74.73
2023-10-20T16:07:33.182Z,73.10
2023-10-20T16:10:03.405Z,74.05
2023-10-20T16:12:33.633Z,74.49
2023-10-20T16:15:03.970Z,73.99
2023-10-20T16:17:34.640Z,74.10
2023-10-20T16:20:05.587Z,75.00
2023-10-20T16:22:35.776Z,76.24
2023-10-20T16:25:06.511Z,74.71
2023-10-20T16:27:36.942Z,73.72
2023-10-20T16:30:07.829Z,73.89
2023-10-20T16:32:40.331Z,75.34
2023-10-20T16:35:11.696Z,74.75
2023-10-20T16:37:41.876Z,74.70
2023-10-20T16:40:13.724Z,72.32
2023-10-20T16:42:43.912Z,73.40
2023-10-20T16:45:14.167Z,74.74
2023-10-20T16:47:44.464Z,73.17
2023-10-20T16:50:14.706Z,72.87
2023-10-20T16:52:44.854Z,73.28
2023-10-20T16:55:14.913Z,72.71
2023-10-20T16:57:45.097Z,72.61
2023-10-20T17:00:15.701Z,72.06
2023-10-20T17:02:47.559Z,72.13
2023-10-20T17:05:18.297Z,72.52
2023-10-20T17:07:49.149Z,72.60
2023-10-20T17:10:20.690Z,73.25
2023-10-20T17:12:52.529Z,73.89
2023-10-20T17:15:22.802Z,75.15
2023-10-20T17:17:53.010Z,74.38
2023-10-20T17:20:23.316Z,74.95
2023-10-20T17:22:53.453Z,75.11
2023-10-20T17:25:23.619Z,72.51
2023-10-20T17:27:53.797Z,72.57
2023-10-20T17:30:24.073Z,72.95
2023-10-20T17:32:54.379Z,72.72
2023-10-20T17:35:24.446Z,72.86
2023-10-20T17:37:56.158Z,72.65
2023-10-20T17:40:26.794Z,70.94
2023-10-20T17:42:56.762Z,69.68
2023-10-20T17:45:28.732Z,68.71
2023-10-20T17:47:58.998Z,68.02
2023-10-20T17:50:29.277Z,68.24
2023-10-20T17:52:59.433Z,68.30
2023-10-20T17:55:29.668Z,68.43
2023-10-20T17:58:02.692Z,68.72
2023-10-20T18:00:33.024Z,67.23
2023-10-20T18:03:03.605Z,66.22
2023-10-20T18:05:34.746Z,65.79
2023-10-20T18:08:06.626Z,67.29
2023-10-20T18:10:36.952Z,67.00
2023-10-20T18:13:07.096Z,67.65
2023-10-20T18:15:41.588Z,67.64
2023-10-20T18:18:12.370Z,66.49
2023-10-20T18:20:42.730Z,66.53
2023-10-20T18:23:12.994Z,68.20
2023-10-20T18:25:43.153Z,67.93
2023-10-20T18:28:13.327Z,69.42
2023-10-20T18:30:43.465Z,67.64
2023-10-20T18:33:13.829Z,65.53
2023-10-20T18:35:44.139Z,65.63
2023-10-20T18:38:14.718Z,64.31
2023-10-20T18:40:46.078Z,63.97
2023-10-20T18:43:16.287Z,63.52
2023-10-20T18:45:59.256Z,62.93
2023-10-20T18:48:31.113Z,63.12
2023-10-20T18:51:12.048Z,64.14
2023-10-20T18:53:43.268Z,61.85
2023-10-20T18:56:14.200Z,61.18
2023-10-20T18:58:47.180Z,66.10
2023-10-20T19:01:18.495Z,68.10
2023-10-20T19:03:49.487Z,67.42
2023-10-20T19:06:20.249Z,68.99
2023-10-20T19:08:50.440Z,70.12
2023-10-20T19:11:23.172Z,71.05
2023-10-20T19:13:53.901Z,71.40
2023-10-20T19:16:24.166Z,71.02
2023-10-20T19:18:54.448Z,72.10
2023-10-20T19:21:24.782Z,71.43
2023-10-20T19:23:54.994Z,72.39
2023-10-20T19:26:25.190Z,73.35
2023-10-20T19:28:55.672Z,72.17
2023-10-20T19:31:25.944Z,72.68
2023-10-20T19:33:56.193Z,73.63
2023-10-20T19:36:26.396Z,73.50
2023-10-20T19:38:56.801Z,73.97
2023-10-20T19:41:27.138Z,73.96
2023-10-20T19:43:57.396Z,73.73
2023-10-20T19:46:28.208Z,74.11
2023-10-20T19:48:58.429Z,73.83
2023-10-20T19:51:28.526Z,72.22
2023-10-20T19:53:58.765Z,73.64
2023-10-20T19:56:29.012Z,74.27
2023-10-20T19:58:59.306Z,74.61
2023-10-20T20:01:29.905Z,75.84
2023-10-20T20:04:00.269Z,76.33
2023-10-20T20:06:31.168Z,76.54
2023-10-20T20:09:01.338Z,76.12
2023-10-20T20:11:31.661Z,76.24
2023-10-20T20:14:01.904Z,76.51
2023-10-20T20:16:32.153Z,76.40
2023-10-20T20:19:02.203Z,76.39
2023-10-20T20:21:32.431Z,76.67
2023-10-20T20:24:02.615Z,77.14
2023-10-20T20:26:32.773Z,77.50
2023-10-20T20:29:03.114Z,78.14
2023-10-20T20:31:33.711Z,78.34
2023-10-20T20:34:03.896Z,78.36
2023-10-20T20:36:34.186Z,79.14
2023-10-20T20:39:06.635Z,79.46
2023-10-20T20:41:36.897Z,79.87
2023-10-20T20:44:07.069Z,80.43
2023-10-20T20:46:37.592Z,80.66
2023-10-20T20:49:07.859Z,80.71
2023-10-20T20:51:38.505Z,81.69
2023-10-20T20:54:08.774Z,82.31
2023-10-20T20:56:39.198Z,82.51
2023-10-20T20:59:09.496Z,83.03
2023-10-20T21:01:41.104Z,83.66
2023-10-20T21:04:11.361Z,83.78
2023-10-20T21:06:42.019Z,83.02
2023-10-20T21:09:12.645Z,82.17
2023-10-20T21:11:42.978Z,81.80
2023-10-20T21:14:13.274Z,83.16
2023-10-20T21:16:43.436Z,84.51
2023-10-20T21:19:13.619Z,84.82
2023-10-20T21:21:43.902Z,84.80
2023-10-20T21:24:14.161Z,85.06
2023-10-20T21:26:44.377Z,85.36
2023-10-20T21:29:14.554Z,85.71
2023-10-20T21:31:44.744Z,86.13
2023-10-20T21:34:14.647Z,86.02
2023-10-20T21:36:44.988Z,86.26
2023-10-20T21:39:15.345Z,86.43
2023-10-20T21:41:45.638Z,86.38
2023-10-20T21:44:15.769Z,86.69
2023-10-20T21:46:45.754Z,86.76
2023-10-20T21:49:15.920Z,87.06
2023-10-20T21:51:51.103Z,87.24
2023-10-20T21:54:21.252Z,87.38
2023-10-20T21:56:51.525Z,87.36
2023-10-20T21:59:21.711Z,87.72
2023-10-20T22:02:08.982Z,87.81
2023-10-20T22:04:40.167Z,87.72
2023-10-20T22:07:10.899Z,87.72
2023-10-20T22:09:53.145Z,88.05
2023-10-20T22:12:24.656Z,88.56
2023-10-20T22:14:54.952Z,88.16
2023-10-20T22:17:25.243Z,88.26
2023-10-20T22:19:55.478Z,88.70
2023-10-20T22:22:26.068Z,88.83
2023-10-20T22:24:56.358Z,89.09
2023-10-20T22:27:29.435Z,89.29
2023-10-20T22:30:00.883Z,89.48
2023-10-20T22:32:31.281Z,89.53
2023-10-20T22:35:02.858Z,89.85
2023-10-20T22:37:33.696Z,90.15
2023-10-20T22:40:06.856Z,90.14
2023-10-20T22:42:38.608Z,90.30
2023-10-20T22:45:09.268Z,90.56
2023-10-20T22:47:39.586Z,90.75
2023-10-20T22:50:10.289Z,90.93
2023-10-20T22:52:40.538Z,90.95
2023-10-20T22:55:11.638Z,91.35
2023-10-20T22:57:41.912Z,91.03
2023-10-20T23:00:14.480Z,91.17
2023-10-20T23:02:45.942Z,91.47
2023-10-20T23:05:16.229Z,91.38
2023-10-20T23:07:46.860Z,91.71
2023-10-20T23:10:17.018Z,91.62
2023-10-20T23:12:47.320Z,91.63
2023-10-20T23:15:17.641Z,91.75
2023-10-20T23:17:47.941Z,91.93
2023-10-20T23:20:18.210Z,91.85
2023-10-20T23:22:48.675Z,92.21
2023-10-20T23:25:18.928Z,92.05
2023-10-20T23:27:49.832Z,92.27
2023-10-20T23:30:20.136Z,92.07
2023-10-20T23:32:50.558Z,91.94
2023-10-20T23:35:21.241Z,92.23
2023-10-20T23:37:51.484Z,92.04
2023-10-20T23:40:21.733Z,92.78
2023-10-20T23:42:52.016Z,92.09
2023-10-20T23:45:22.311Z,92.95
2023-10-20T23:47:52.550Z,93.34
2023-10-20T23:50:23.273Z,93.71
2023-10-20T23:52:53.474Z,92.96
2023-10-20T23:55:23.406Z,93.51
2023-10-20T23:57:53.617Z,94.19
